sensor_id;sensor_type;location;lat;lon;timestamp;temperature;humidity
21312;DHT22;18076;52.154;10.570;2023-08-21T00:01:55;22.00;99.90
21312;DHT22;18076;52.154;10.570;2023-08-21T00:04:21;22.00;99.90
21312;DHT22;18076;52.154;10.570;2023-08-21T00:06:46;22.00;99.90
21312;DHT22;18076;52.154;10.570;2023-08-21T00:09:12;22.00;99.90
21312;DHT22;18076;52.154;10.570;2023-08-21T00:11:37;22.00;99.90
21312;DHT22;18076;52.154;10.570;2023-08-21T00:14:03;22.00;99.90
21312;DHT22;18076;52.154;10.570;2023-08-21T00:16:28;22.00;99.90
21312;DHT22;18076;52.154;10.570;2023-08-21T00:18:55;22.00;99.90
21312;DHT22;18076;52.154;10.570;2023-08-21T00:21:21;21.90;99.90
21312;DHT22;18076;52.154;10.570;2023-08-21T00:23:46;21.80;99.90
21312;DHT22;18076;52.154;10.570;2023-08-21T00:26:12;21.70;99.90
21312;DHT22;18076;52.154;10.570;2023-08-21T00:28:38;21.70;99.90
21312;DHT22;18076;52.154;10.570;2023-08-21T00:31:04;21.70;99.90
21312;DHT22;18076;52.154;10.570;2023-08-21T00:33:30;21.60;99.90
21312;DHT22;18076;52.154;10.570;2023-08-21T00:35:56;21.70;99.90
21312;DHT22;18076;52.154;10.570;2023-08-21T00:38:22;21.60;99.90
21312;DHT22;18076;52.154;10.570;2023-08-21T00:40:48;21.60;99.90
21312;DHT22;18076;52.154;10.570;2023-08-21T00:43:14;21.60;99.90
21312;DHT22;18076;52.154;10.570;2023-08-21T00:45:40;21.60;99.90
21312;DHT22;18076;52.154;10.570;2023-08-21T00:48:06;21.50;99.90
21312;DHT22;18076;52.154;10.570;2023-08-21T00:50:32;21.40;99.90
21312;DHT22;18076;52.154;10.570;2023-08-21T00:52:58;21.40;99.90
21312;DHT22;18076;52.154;10.570;2023-08-21T00:55:23;21.30;99.90
21312;DHT22;18076;52.154;10.570;2023-08-21T00:57:49;21.30;99.90
21312;DHT22;18076;52.154;10.570;2023-08-21T01:00:15;21.20;99.90
21312;DHT22;18076;52.154;10.570;2023-08-21T01:02:40;21.20;99.90
21312;DHT22;18076;52.154;10.570;2023-08-21T01:05:07;21.10;99.90
21312;DHT22;18076;52.154;10.570;2023-08-21T01:07:35;21.00;99.90
21312;DHT22;18076;52.154;10.570;2023-08-21T01:10:05;21.00;99.90
21312;DHT22;18076;52.154;10.570;2023-08-21T01:12:33;20.90;99.90
21312;DHT22;18076;52.154;10.570;2023-08-21T01:15:02;20.90;99.90
21312;DHT22;18076;52.154;10.570;2023-08-21T01:17:29;20.90;99.90
21312;DHT22;18076;52.154;10.570;2023-08-21T01:19:55;20.80;99.90
21312;DHT22;18076;52.154;10.570;2023-08-21T01:22:25;20.70;99.90
21312;DHT22;18076;52.154;10.570;2023-08-21T01:24:50;20.80;99.90
21312;DHT22;18076;52.154;10.570;2023-08-21T01:27:16;20.80;99.90
21312;DHT22;18076;52.154;10.570;2023-08-21T01:29:41;20.80;99.90
21312;DHT22;18076;52.154;10.570;2023-08-21T01:32:09;20.70;99.90
21312;DHT22;18076;52.154;10.570;2023-08-21T01:34:37;20.70;99.90
21312;DHT22;18076;52.154;10.570;2023-08-21T01:37:03;20.70;99.90
21312;DHT22;18076;52.154;10.570;2023-08-21T01:39:29;20.70;99.90
21312;DHT22;18076;52.154;10.570;2023-08-21T01:41:55;20.70;99.90
21312;DHT22;18076;52.154;10.570;2023-08-21T01:44:21;20.70;99.90
21312;DHT22;18076;52.154;10.570;2023-08-21T01:46:47;20.60;99.90
21312;DHT22;18076;52.154;10.570;2023-08-21T01:49:12;20.60;99.90
21312;DHT22;18076;52.154;10.570;2023-08-21T01:51:38;20.60;99.90
21312;DHT22;18076;52.154;10.570;2023-08-21T01:54:03;20.60;99.90
21312;DHT22;18076;52.154;10.570;2023-08-21T01:56:29;20.60;99.90
21312;DHT22;18076;52.154;10.570;2023-08-21T01:58:55;20.60;99.90
21312;DHT22;18076;52.154;10.570;2023-08-21T02:01:21;20.60;99.90
21312;DHT22;18076;52.154;10.570;2023-08-21T02:03:46;20.60;99.90
21312;DHT22;18076;52.154;10.570;2023-08-21T02:06:12;20.40;99.90
21312;DHT22;18076;52.154;10.570;2023-08-21T02:08:38;20.40;99.90
21312;DHT22;18076;52.154;10.570;2023-08-21T02:11:03;20.30;99.90
21312;DHT22;18076;52.154;10.570;2023-08-21T02:13:29;20.30;99.90
21312;DHT22;18076;52.154;10.570;2023-08-21T02:15:54;20.20;99.90
21312;DHT22;18076;52.154;10.570;2023-08-21T02:18:20;20.20;99.90
21312;DHT22;18076;52.154;10.570;2023-08-21T02:20:46;20.20;99.90
21312;DHT22;18076;52.154;10.570;2023-08-21T02:23:12;20.10;99.90
21312;DHT22;18076;52.154;10.570;2023-08-21T02:25:38;20.10;99.90
21312;DHT22;18076;52.154;10.570;2023-08-21T02:28:03;20.00;99.90
21312;DHT22;18076;52.154;10.570;2023-08-21T02:30:29;20.00;99.90
21312;DHT22;18076;52.154;10.570;2023-08-21T02:32:55;20.00;99.90
21312;DHT22;18076;52.154;10.570;2023-08-21T02:35:20;19.90;99.90
21312;DHT22;18076;52.154;10.570;2023-08-21T02:37:46;19.90;99.90
21312;DHT22;18076;52.154;10.570;2023-08-21T02:40:11;19.90;99.90
21312;DHT22;18076;52.154;10.570;2023-08-21T02:42:37;19.80;99.90
21312;DHT22;18076;52.154;10.570;2023-08-21T02:45:03;19.80;99.90
21312;DHT22;18076;52.154;10.570;2023-08-21T02:47:34;19.80;99.90
21312;DHT22;18076;52.154;10.570;2023-08-21T02:50:00;19.80;99.90
21312;DHT22;18076;52.154;10.570;2023-08-21T02:52:26;19.80;99.90
21312;DHT22;18076;52.154;10.570;2023-08-21T02:54:51;19.70;99.90
21312;DHT22;18076;52.154;10.570;2023-08-21T02:57:17;19.70;99.90
21312;DHT22;18076;52.154;10.570;2023-08-21T02:59:43;19.70;99.90
21312;DHT22;18076;52.154;10.570;2023-08-21T03:02:08;19.70;99.90
21312;DHT22;18076;52.154;10.570;2023-08-21T03:04:34;19.60;99.90
21312;DHT22;18076;52.154;10.570;2023-08-21T03:06:59;19.60;99.90
21312;DHT22;18076;52.154;10.570;2023-08-21T03:09:25;19.60;99.90
21312;DHT22;18076;52.154;10.570;2023-08-21T03:11:51;19.60;99.90
21312;DHT22;18076;52.154;10.570;2023-08-21T03:14:16;19.60;99.90
21312;DHT22;18076;52.154;10.570;2023-08-21T03:16:42;19.60;99.90
21312;DHT22;18076;52.154;10.570;2023-08-21T03:19:08;19.60;99.90
21312;DHT22;18076;52.154;10.570;2023-08-21T03:21:33;19.60;99.90
21312;DHT22;18076;52.154;10.570;2023-08-21T03:23:59;19.60;99.90
21312;DHT22;18076;52.154;10.570;2023-08-21T03:26:24;19.60;99.90
21312;DHT22;18076;52.154;10.570;2023-08-21T03:28:50;19.50;99.90
21312;DHT22;18076;52.154;10.570;2023-08-21T03:31:16;19.50;99.90
21312;DHT22;18076;52.154;10.570;2023-08-21T03:33:42;19.50;99.90
21312;DHT22;18076;52.154;10.570;2023-08-21T03:36:07;19.40;99.90
21312;DHT22;18076;52.154;10.570;2023-08-21T03:38:33;19.30;99.90
21312;DHT22;18076;52.154;10.570;2023-08-21T03:40:59;19.30;99.90
21312;DHT22;18076;52.154;10.570;2023-08-21T03:43:25;19.30;99.90
21312;DHT22;18076;52.154;10.570;2023-08-21T03:45:50;19.30;99.90
21312;DHT22;18076;52.154;10.570;2023-08-21T03:48:16;19.20;99.90
21312;DHT22;18076;52.154;10.570;2023-08-21T03:50:41;19.10;99.90
21312;DHT22;18076;52.154;10.570;2023-08-21T03:53:07;19.10;99.90
21312;DHT22;18076;52.154;10.570;2023-08-21T03:55:33;19.10;99.90
21312;DHT22;18076;52.154;10.570;2023-08-21T03:57:58;19.10;99.90
21312;DHT22;18076;52.154;10.570;2023-08-21T04:00:24;19.10;99.90
21312;DHT22;18076;52.154;10.570;2023-08-21T04:02:49;19.10;99.90
21312;DHT22;18076;52.154;10.570;2023-08-21T04:05:15;19.00;99.90
21312;DHT22;18076;52.154;10.570;2023-08-21T04:07:41;19.00;99.90
21312;DHT22;18076;52.154;10.570;2023-08-21T04:10:07;19.00;99.90
21312;DHT22;18076;52.154;10.570;2023-08-21T04:12:32;19.00;99.90
21312;DHT22;18076;52.154;10.570;2023-08-21T04:14:58;19.00;99.90
21312;DHT22;18076;52.154;10.570;2023-08-21T04:17:23;19.00;99.90
21312;DHT22;18076;52.154;10.570;2023-08-21T04:19:49;19.00;99.90
21312;DHT22;18076;52.154;10.570;2023-08-21T04:22:15;19.00;99.90
21312;DHT22;18076;52.154;10.570;2023-08-21T04:24:41;19.00;99.90
21312;DHT22;18076;52.154;10.570;2023-08-21T04:27:07;19.00;99.90
21312;DHT22;18076;52.154;10.570;2023-08-21T04:29:32;19.00;99.90
21312;DHT22;18076;52.154;10.570;2023-08-21T04:31:58;19.00;99.90
21312;DHT22;18076;52.154;10.570;2023-08-21T04:34:24;19.00;99.90
21312;DHT22;18076;52.154;10.570;2023-08-21T04:36:49;19.00;99.90
21312;DHT22;18076;52.154;10.570;2023-08-21T04:39:15;18.90;99.90
21312;DHT22;18076;52.154;10.570;2023-08-21T04:41:41;19.00;99.90
21312;DHT22;18076;52.154;10.570;2023-08-21T04:44:07;19.00;99.90
21312;DHT22;18076;52.154;10.570;2023-08-21T04:46:32;19.00;99.90
21312;DHT22;18076;52.154;10.570;2023-08-21T04:48:58;19.00;99.90
21312;DHT22;18076;52.154;10.570;2023-08-21T04:51:24;19.00;99.90
21312;DHT22;18076;52.154;10.570;2023-08-21T04:53:49;19.00;99.90
21312;DHT22;18076;52.154;10.570;2023-08-21T04:56:15;19.00;99.90
21312;DHT22;18076;52.154;10.570;2023-08-21T04:58:41;19.00;99.90
21312;DHT22;18076;52.154;10.570;2023-08-21T05:01:06;19.00;99.90
21312;DHT22;18076;52.154;10.570;2023-08-21T05:03:32;19.10;99.90
21312;DHT22;18076;52.154;10.570;2023-08-21T05:05:57;19.10;99.90
21312;DHT22;18076;52.154;10.570;2023-08-21T05:08:24;19.10;99.90
21312;DHT22;18076;52.154;10.570;2023-08-21T05:11:05;19.20;99.90
21312;DHT22;18076;52.154;10.570;2023-08-21T05:13:31;19.20;99.90
21312;DHT22;18076;52.154;10.570;2023-08-21T05:16:00;19.30;99.90
21312;DHT22;18076;52.154;10.570;2023-08-21T05:18:32;19.30;99.90
21312;DHT22;18076;52.154;10.570;2023-08-21T05:20:57;19.30;99.90
21312;DHT22;18076;52.154;10.570;2023-08-21T05:23:31;19.30;99.90
21312;DHT22;18076;52.154;10.570;2023-08-21T05:26:07;19.40;99.90
21312;DHT22;18076;52.154;10.570;2023-08-21T05:28:33;19.40;99.90
21312;DHT22;18076;52.154;10.570;2023-08-21T05:30:58;19.50;99.90
21312;DHT22;18076;52.154;10.570;2023-08-21T05:33:27;19.60;99.90
21312;DHT22;18076;52.154;10.570;2023-08-21T05:35:53;19.60;99.90
21312;DHT22;18076;52.154;10.570;2023-08-21T05:38:21;19.70;99.90
21312;DHT22;18076;52.154;10.570;2023-08-21T05:40:47;19.80;99.90
21312;DHT22;18076;52.154;10.570;2023-08-21T05:43:13;19.90;99.90
21312;DHT22;18076;52.154;10.570;2023-08-21T05:45:41;19.90;99.90
21312;DHT22;18076;52.154;10.570;2023-08-21T05:48:07;19.90;99.90
21312;DHT22;18076;52.154;10.570;2023-08-21T05:50:33;20.00;99.90
21312;DHT22;18076;52.154;10.570;2023-08-21T05:52:58;20.00;99.90
21312;DHT22;18076;52.154;10.570;2023-08-21T05:55:26;20.10;99.90
21312;DHT22;18076;52.154;10.570;2023-08-21T05:57:52;20.10;99.90
21312;DHT22;18076;52.154;10.570;2023-08-21T06:00:21;20.10;99.90
21312;DHT22;18076;52.154;10.570;2023-08-21T06:02:47;20.20;99.90
21312;DHT22;18076;52.154;10.570;2023-08-21T06:05:13;20.20;99.90
21312;DHT22;18076;52.154;10.570;2023-08-21T06:07:38;20.30;99.90
21312;DHT22;18076;52.154;10.570;2023-08-21T06:10:10;20.40;99.90
21312;DHT22;18076;52.154;10.570;2023-08-21T06:12:42;20.60;99.90
21312;DHT22;18076;52.154;10.570;2023-08-21T06:15:08;20.70;99.90
21312;DHT22;18076;52.154;10.570;2023-08-21T06:29:07;21.70;99.90
21312;DHT22;18076;52.154;10.570;2023-08-21T06:31:32;21.90;99.90
21312;DHT22;18076;52.154;10.570;2023-08-21T06:33:58;22.20;99.90
21312;DHT22;18076;52.154;10.570;2023-08-21T06:36:24;22.50;99.90
21312;DHT22;18076;52.154;10.570;2023-08-21T06:38:50;22.90;99.90
21312;DHT22;18076;52.154;10.570;2023-08-21T06:41:15;23.10;99.90
21312;DHT22;18076;52.154;10.570;2023-08-21T06:43:41;23.30;99.90
21312;DHT22;18076;52.154;10.570;2023-08-21T06:46:07;23.30;99.90
21312;DHT22;18076;52.154;10.570;2023-08-21T06:48:34;23.40;99.90
21312;DHT22;18076;52.154;10.570;2023-08-21T06:53:45;23.30;99.90
21312;DHT22;18076;52.154;10.570;2023-08-21T06:56:12;23.60;99.90
21312;DHT22;18076;52.154;10.570;2023-08-21T06:58:37;23.90;99.90
21312;DHT22;18076;52.154;10.570;2023-08-21T07:01:03;24.00;99.90
21312;DHT22;18076;52.154;10.570;2023-08-21T07:03:29;24.10;99.90
21312;DHT22;18076;52.154;10.570;2023-08-21T07:05:55;24.30;99.90
21312;DHT22;18076;52.154;10.570;2023-08-21T07:08:21;24.60;99.90
21312;DHT22;18076;52.154;10.570;2023-08-21T07:10:47;24.80;99.90
21312;DHT22;18076;52.154;10.570;2023-08-21T07:13:12;24.90;99.90
21312;DHT22;18076;52.154;10.570;2023-08-21T07:15:38;25.10;99.90
21312;DHT22;18076;52.154;10.570;2023-08-21T07:18:03;25.20;99.90
21312;DHT22;18076;52.154;10.570;2023-08-21T07:20:29;25.30;99.90
21312;DHT22;18076;52.154;10.570;2023-08-21T07:22:55;25.40;99.90
21312;DHT22;18076;52.154;10.570;2023-08-21T07:25:21;25.50;99.90
21312;DHT22;18076;52.154;10.570;2023-08-21T07:27:46;25.80;99.90
21312;DHT22;18076;52.154;10.570;2023-08-21T07:30:12;26.10;99.90
21312;DHT22;18076;52.154;10.570;2023-08-21T07:32:37;26.10;99.90
21312;DHT22;18076;52.154;10.570;2023-08-21T07:35:03;26.40;99.90
21312;DHT22;18076;52.154;10.570;2023-08-21T07:37:29;26.60;99.90
21312;DHT22;18076;52.154;10.570;2023-08-21T07:39:54;26.80;99.90
21312;DHT22;18076;52.154;10.570;2023-08-21T07:42:23;26.70;99.90
21312;DHT22;18076;52.154;10.570;2023-08-21T07:44:48;26.80;99.90
21312;DHT22;18076;52.154;10.570;2023-08-21T07:47:15;26.80;99.90
21312;DHT22;18076;52.154;10.570;2023-08-21T07:49:40;26.40;99.90
21312;DHT22;18076;52.154;10.570;2023-08-21T07:52:06;26.10;99.90
21312;DHT22;18076;52.154;10.570;2023-08-21T07:54:32;25.80;99.90
21312;DHT22;18076;52.154;10.570;2023-08-21T07:56:57;25.60;99.90
21312;DHT22;18076;52.154;10.570;2023-08-21T07:59:23;25.80;99.90
21312;DHT22;18076;52.154;10.570;2023-08-21T08:01:49;26.20;99.90
21312;DHT22;18076;52.154;10.570;2023-08-21T08:04:15;26.70;99.90
21312;DHT22;18076;52.154;10.570;2023-08-21T08:06:41;27.00;99.90
21312;DHT22;18076;52.154;10.570;2023-08-21T08:09:07;27.60;99.90
21312;DHT22;18076;52.154;10.570;2023-08-21T08:11:32;27.90;99.90
21312;DHT22;18076;52.154;10.570;2023-08-21T08:13:58;27.70;99.90
21312;DHT22;18076;52.154;10.570;2023-08-21T08:16:24;27.60;99.90
21312;DHT22;18076;52.154;10.570;2023-08-21T08:18:50;27.30;99.90
21312;DHT22;18076;52.154;10.570;2023-08-21T08:21:15;27.00;99.90
21312;DHT22;18076;52.154;10.570;2023-08-21T08:23:41;26.60;99.90
21312;DHT22;18076;52.154;10.570;2023-08-21T08:26:07;26.50;99.90
21312;DHT22;18076;52.154;10.570;2023-08-21T08:28:34;26.40;99.90
21312;DHT22;18076;52.154;10.570;2023-08-21T08:30:59;26.80;99.90
21312;DHT22;18076;52.154;10.570;2023-08-21T08:33:26;27.50;99.90
21312;DHT22;18076;52.154;10.570;2023-08-21T08:35:52;27.80;99.90
21312;DHT22;18076;52.154;10.570;2023-08-21T08:38:18;27.80;99.90
21312;DHT22;18076;52.154;10.570;2023-08-21T08:40:44;27.40;99.90
21312;DHT22;18076;52.154;10.570;2023-08-21T08:43:12;27.00;99.90
21312;DHT22;18076;52.154;10.570;2023-08-21T08:45:37;27.00;99.90
21312;DHT22;18076;52.154;10.570;2023-08-21T08:48:13;27.30;99.90
21312;DHT22;18076;52.154;10.570;2023-08-21T08:51:09;27.40;99.90
21312;DHT22;18076;52.154;10.570;2023-08-21T08:53:42;27.40;99.90
21312;DHT22;18076;52.154;10.570;2023-08-21T08:56:10;27.30;99.90
21312;DHT22;18076;52.154;10.570;2023-08-21T08:58:36;27.30;99.90
21312;DHT22;18076;52.154;10.570;2023-08-21T09:01:03;27.20;99.90
21312;DHT22;18076;52.154;10.570;2023-08-21T09:03:36;26.90;99.90
21312;DHT22;18076;52.154;10.570;2023-08-21T09:06:02;27.20;99.90
21312;DHT22;18076;52.154;10.570;2023-08-21T09:08:28;27.30;99.90
21312;DHT22;18076;52.154;10.570;2023-08-21T09:39:46;28.90;99.90
21312;DHT22;18076;52.154;10.570;2023-08-21T10:10:21;29.50;99.90
21312;DHT22;18076;52.154;10.570;2023-08-21T10:12:51;29.70;99.90
21312;DHT22;18076;52.154;10.570;2023-08-21T10:15:18;29.70;99.90
21312;DHT22;18076;52.154;10.570;2023-08-21T10:17:51;29.20;99.90
21312;DHT22;18076;52.154;10.570;2023-08-21T11:03:17;29.80;99.90
21312;DHT22;18076;52.154;10.570;2023-08-21T11:05:43;29.70;99.90
21312;DHT22;18076;52.154;10.570;2023-08-21T11:08:08;29.50;99.90
21312;DHT22;18076;52.154;10.570;2023-08-21T11:10:34;29.40;99.90
21312;DHT22;18076;52.154;10.570;2023-08-21T11:13:00;29.10;99.90
21312;DHT22;18076;52.154;10.570;2023-08-21T11:15:28;29.00;99.90
21312;DHT22;18076;52.154;10.570;2023-08-21T11:17:55;28.70;99.90
21312;DHT22;18076;52.154;10.570;2023-08-21T11:20:21;28.60;99.90
21312;DHT22;18076;52.154;10.570;2023-08-21T11:22:47;28.70;99.90
21312;DHT22;18076;52.154;10.570;2023-08-21T11:25:14;28.70;99.90
21312;DHT22;18076;52.154;10.570;2023-08-21T11:27:40;28.90;99.90
21312;DHT22;18076;52.154;10.570;2023-08-21T11:30:05;29.10;99.90
21312;DHT22;18076;52.154;10.570;2023-08-21T11:32:31;29.20;99.90
21312;DHT22;18076;52.154;10.570;2023-08-21T11:34:57;29.60;99.90
21312;DHT22;18076;52.154;10.570;2023-08-21T11:37:23;30.00;99.90
21312;DHT22;18076;52.154;10.570;2023-08-21T11:39:50;30.30;99.90
21312;DHT22;18076;52.154;10.570;2023-08-21T11:42:17;30.50;99.90
21312;DHT22;18076;52.154;10.570;2023-08-21T11:44:45;30.50;99.90
21312;DHT22;18076;52.154;10.570;2023-08-21T11:47:11;30.50;99.90
21312;DHT22;18076;52.154;10.570;2023-08-21T11:49:38;30.50;99.90
21312;DHT22;18076;52.154;10.570;2023-08-21T11:52:04;30.70;99.90
21312;DHT22;18076;52.154;10.570;2023-08-21T11:54:33;30.90;99.90
21312;DHT22;18076;52.154;10.570;2023-08-21T11:57:03;31.00;99.90
21312;DHT22;18076;52.154;10.570;2023-08-21T11:59:29;31.10;99.90
21312;DHT22;18076;52.154;10.570;2023-08-21T12:01:55;31.20;99.90
21312;DHT22;18076;52.154;10.570;2023-08-21T12:04:21;31.20;99.90
21312;DHT22;18076;52.154;10.570;2023-08-21T12:06:46;30.60;99.90
21312;DHT22;18076;52.154;10.570;2023-08-21T12:09:12;30.40;99.90
21312;DHT22;18076;52.154;10.570;2023-08-21T12:11:38;30.50;99.90
21312;DHT22;18076;52.154;10.570;2023-08-21T12:14:04;30.40;99.90
21312;DHT22;18076;52.154;10.570;2023-08-21T12:16:29;30.30;99.90
21312;DHT22;18076;52.154;10.570;2023-08-21T12:18:55;29.90;99.90
21312;DHT22;18076;52.154;10.570;2023-08-21T12:21:23;29.60;99.90
21312;DHT22;18076;52.154;10.570;2023-08-21T12:23:48;29.60;99.90
21312;DHT22;18076;52.154;10.570;2023-08-21T12:26:14;29.90;99.90
21312;DHT22;18076;52.154;10.570;2023-08-21T12:28:46;30.10;99.90
21312;DHT22;18076;52.154;10.570;2023-08-21T12:31:11;30.20;99.90
21312;DHT22;18076;52.154;10.570;2023-08-21T12:33:37;30.40;99.90
21312;DHT22;18076;52.154;10.570;2023-08-21T12:36:03;30.20;99.90
21312;DHT22;18076;52.154;10.570;2023-08-21T12:38:28;30.10;99.90
21312;DHT22;18076;52.154;10.570;2023-08-21T12:40:54;30.00;99.90
21312;DHT22;18076;52.154;10.570;2023-08-21T12:43:20;30.40;99.90
21312;DHT22;18076;52.154;10.570;2023-08-21T12:45:46;30.80;99.90
21312;DHT22;18076;52.154;10.570;2023-08-21T12:48:12;31.00;99.90
21312;DHT22;18076;52.154;10.570;2023-08-21T12:50:38;31.00;99.90
21312;DHT22;18076;52.154;10.570;2023-08-21T12:53:04;30.90;99.90
21312;DHT22;18076;52.154;10.570;2023-08-21T12:55:34;31.00;99.90
21312;DHT22;18076;52.154;10.570;2023-08-21T12:58:04;30.90;99.90
21312;DHT22;18076;52.154;10.570;2023-08-21T13:00:32;31.00;99.90
21312;DHT22;18076;52.154;10.570;2023-08-21T13:02:58;30.80;99.90
21312;DHT22;18076;52.154;10.570;2023-08-21T13:05:24;30.90;99.90
21312;DHT22;18076;52.154;10.570;2023-08-21T13:07:49;30.90;99.90
21312;DHT22;18076;52.154;10.570;2023-08-21T13:10:15;31.10;99.90
21312;DHT22;18076;52.154;10.570;2023-08-21T13:12:42;31.20;99.90
21312;DHT22;18076;52.154;10.570;2023-08-21T13:15:10;31.10;99.80
21312;DHT22;18076;52.154;10.570;2023-08-21T13:17:36;30.80;99.90
21312;DHT22;18076;52.154;10.570;2023-08-21T13:20:02;30.80;99.90
21312;DHT22;18076;52.154;10.570;2023-08-21T13:22:28;30.80;99.90
21312;DHT22;18076;52.154;10.570;2023-08-21T13:24:53;30.50;99.90
21312;DHT22;18076;52.154;10.570;2023-08-21T13:27:19;30.30;99.90
21312;DHT22;18076;52.154;10.570;2023-08-21T13:29:45;30.30;99.90
21312;DHT22;18076;52.154;10.570;2023-08-21T13:32:11;30.30;99.90
21312;DHT22;18076;52.154;10.570;2023-08-21T13:34:37;30.20;99.90
21312;DHT22;18076;52.154;10.570;2023-08-21T13:37:02;30.10;99.90
21312;DHT22;18076;52.154;10.570;2023-08-21T13:39:29;29.80;99.90
21312;DHT22;18076;52.154;10.570;2023-08-21T13:41:56;29.70;99.90
21312;DHT22;18076;52.154;10.570;2023-08-21T13:44:21;29.80;99.90
21312;DHT22;18076;52.154;10.570;2023-08-21T13:46:47;29.90;99.90
21312;DHT22;18076;52.154;10.570;2023-08-21T13:49:13;30.20;99.90
21312;DHT22;18076;52.154;10.570;2023-08-21T13:51:38;30.20;99.90
21312;DHT22;18076;52.154;10.570;2023-08-21T13:54:04;30.00;99.90
21312;DHT22;18076;52.154;10.570;2023-08-21T13:56:30;30.20;99.90
21312;DHT22;18076;52.154;10.570;2023-08-21T13:58:55;30.30;99.90
21312;DHT22;18076;52.154;10.570;2023-08-21T14:01:21;30.10;99.90
21312;DHT22;18076;52.154;10.570;2023-08-21T14:03:47;29.90;99.90
21312;DHT22;18076;52.154;10.570;2023-08-21T14:06:12;29.90;99.90
21312;DHT22;18076;52.154;10.570;2023-08-21T14:08:38;29.70;99.90
21312;DHT22;18076;52.154;10.570;2023-08-21T14:11:03;29.90;99.90
21312;DHT22;18076;52.154;10.570;2023-08-21T14:13:29;30.00;99.80
21312;DHT22;18076;52.154;10.570;2023-08-21T14:15:55;30.20;98.80
21312;DHT22;18076;52.154;10.570;2023-08-21T14:18:20;30.10;99.30
21312;DHT22;18076;52.154;10.570;2023-08-21T14:20:46;30.20;99.50
21312;DHT22;18076;52.154;10.570;2023-08-21T14:23:12;30.30;99.90
21312;DHT22;18076;52.154;10.570;2023-08-21T14:25:38;30.20;99.90
21312;DHT22;18076;52.154;10.570;2023-08-21T14:28:03;30.10;99.90
21312;DHT22;18076;52.154;10.570;2023-08-21T14:30:29;30.10;99.40
21312;DHT22;18076;52.154;10.570;2023-08-21T14:32:54;30.00;99.90
21312;DHT22;18076;52.154;10.570;2023-08-21T14:35:20;30.00;99.90
21312;DHT22;18076;52.154;10.570;2023-08-21T14:37:46;29.90;99.90
21312;DHT22;18076;52.154;10.570;2023-08-21T14:40:12;29.80;99.90
21312;DHT22;18076;52.154;10.570;2023-08-21T14:42:38;30.10;99.90
21312;DHT22;18076;52.154;10.570;2023-08-21T14:45:04;30.30;99.90
21312;DHT22;18076;52.154;10.570;2023-08-21T14:47:31;30.40;99.10
21312;DHT22;18076;52.154;10.570;2023-08-21T14:49:57;30.50;98.50
21312;DHT22;18076;52.154;10.570;2023-08-21T14:52:23;30.40;98.30
21312;DHT22;18076;52.154;10.570;2023-08-21T14:54:52;30.40;98.00
21312;DHT22;18076;52.154;10.570;2023-08-21T14:57:20;30.10;97.60
21312;DHT22;18076;52.154;10.570;2023-08-21T14:59:52;29.60;98.20
21312;DHT22;18076;52.154;10.570;2023-08-21T15:02:24;29.10;98.70
21312;DHT22;18076;52.154;10.570;2023-08-21T15:04:55;28.60;98.60
21312;DHT22;18076;52.154;10.570;2023-08-21T15:07:23;28.40;98.80
21312;DHT22;18076;52.154;10.570;2023-08-21T15:09:52;28.40;99.90
21312;DHT22;18076;52.154;10.570;2023-08-21T15:12:23;28.60;99.40
21312;DHT22;18076;52.154;10.570;2023-08-21T15:14:53;28.60;99.80
21312;DHT22;18076;52.154;10.570;2023-08-21T15:17:23;28.70;99.90
21312;DHT22;18076;52.154;10.570;2023-08-21T15:19:52;28.80;99.90
21312;DHT22;18076;52.154;10.570;2023-08-21T15:22:21;28.60;99.70
21312;DHT22;18076;52.154;10.570;2023-08-21T15:24:51;28.60;99.90
21312;DHT22;18076;52.154;10.570;2023-08-21T15:27:17;28.40;99.60
21312;DHT22;18076;52.154;10.570;2023-08-21T15:29:43;28.20;99.90
21312;DHT22;18076;52.154;10.570;2023-08-21T15:32:08;28.10;99.90
21312;DHT22;18076;52.154;10.570;2023-08-21T15:34:35;28.30;99.90
21312;DHT22;18076;52.154;10.570;2023-08-21T15:37:01;28.50;99.90
21312;DHT22;18076;52.154;10.570;2023-08-21T15:39:26;28.50;99.90
21312;DHT22;18076;52.154;10.570;2023-08-21T15:41:52;28.40;99.90
21312;DHT22;18076;52.154;10.570;2023-08-21T15:44:18;28.40;99.90
21312;DHT22;18076;52.154;10.570;2023-08-21T15:46:44;28.30;99.90
21312;DHT22;18076;52.154;10.570;2023-08-21T15:49:10;28.20;99.90
21312;DHT22;18076;52.154;10.570;2023-08-21T15:51:35;28.00;99.90
21312;DHT22;18076;52.154;10.570;2023-08-21T15:54:01;28.00;99.90
21312;DHT22;18076;52.154;10.570;2023-08-21T15:56:26;27.90;99.90
21312;DHT22;18076;52.154;10.570;2023-08-21T15:58:53;27.80;99.90
21312;DHT22;18076;52.154;10.570;2023-08-21T16:01:18;27.90;99.90
21312;DHT22;18076;52.154;10.570;2023-08-21T16:03:44;27.80;99.90
21312;DHT22;18076;52.154;10.570;2023-08-21T16:06:10;27.80;99.90
21312;DHT22;18076;52.154;10.570;2023-08-21T16:08:35;27.80;99.90
21312;DHT22;18076;52.154;10.570;2023-08-21T16:11:01;27.90;99.90
21312;DHT22;18076;52.154;10.570;2023-08-21T16:13:28;27.70;99.90
21312;DHT22;18076;52.154;10.570;2023-08-21T16:15:54;27.40;99.90
21312;DHT22;18076;52.154;10.570;2023-08-21T16:18:19;27.10;99.90
21312;DHT22;18076;52.154;10.570;2023-08-21T16:20:45;27.30;99.90
21312;DHT22;18076;52.154;10.570;2023-08-21T16:23:10;27.50;99.90
21312;DHT22;18076;52.154;10.570;2023-08-21T16:25:36;27.60;99.90
21312;DHT22;18076;52.154;10.570;2023-08-21T16:28:01;27.30;99.90
21312;DHT22;18076;52.154;10.570;2023-08-21T16:30:27;27.10;99.90
21312;DHT22;18076;52.154;10.570;2023-08-21T16:32:53;26.80;99.90
21312;DHT22;18076;52.154;10.570;2023-08-21T16:35:19;26.60;99.90
21312;DHT22;18076;52.154;10.570;2023-08-21T16:37:45;26.40;99.90
21312;DHT22;18076;52.154;10.570;2023-08-21T16:40:10;26.20;99.90
21312;DHT22;18076;52.154;10.570;2023-08-21T16:42:37;26.30;99.90
21312;DHT22;18076;52.154;10.570;2023-08-21T16:45:03;26.40;99.90
21312;DHT22;18076;52.154;10.570;2023-08-21T16:47:28;26.40;99.90
21312;DHT22;18076;52.154;10.570;2023-08-21T16:49:54;26.50;99.90
21312;DHT22;18076;52.154;10.570;2023-08-21T16:52:20;26.60;99.90
21312;DHT22;18076;52.154;10.570;2023-08-21T16:54:46;26.60;99.90
21312;DHT22;18076;52.154;10.570;2023-08-21T16:57:13;26.60;99.90
21312;DHT22;18076;52.154;10.570;2023-08-21T16:59:39;26.40;99.90
21312;DHT22;18076;52.154;10.570;2023-08-21T17:02:05;26.40;99.90
21312;DHT22;18076;52.154;10.570;2023-08-21T17:04:30;26.30;99.90